Time;durP1;ratioP1;P1;durP2;ratioP2;P2;SDS_P1;SDS_P2;PMS_P1;PMS_P2;Temp;Humidity;BMP_temperature;BMP_pressure;BME280_temperature;BME280_humidity;BME280_pressure;Samples;Min_cycle;Max_cycle;Signal;HPM_P1;HPM_P2
2023/06/11 00:01:23;;;;;;;10.27;6.80;;;;;;;19.92;92.84;99335.94;5027397;28;20473;-19
2023/06/11 00:03:53;;;;;;;10.50;6.80;;;;;;;19.99;92.89;99339.09;5015306;28;20032;-20
2023/06/11 00:06:23;;;;;;;9.90;6.50;;;;;;;19.67;93.63;99333.38;5027268;28;20040;-19
2023/06/11 00:08:52;;;;;;;10.85;6.93;;;;;;;19.74;92.79;99340.34;5027312;28;20037;-18
2023/06/11 00:11:18;;;;;;;12.18;7.00;;;;;;;19.76;92.51;99321.91;5027188;28;20037;-18
2023/06/11 00:13:44;;;;;;;9.88;6.50;;;;;;;19.80;91.96;99331.84;5027227;28;20420;-21
2023/06/11 00:16:11;;;;;;;10.00;7.00;;;;;;;19.71;93.21;99332.81;5013849;28;20037;-19
2023/06/11 00:18:40;;;;;;;9.38;6.88;;;;;;;20.10;92.07;99332.34;5020332;28;20688;-19
2023/06/11 00:21:07;;;;;;;13.00;7.00;;;;;;;20.25;91.45;99340.19;5027082;28;20041;-18
2023/06/11 00:23:35;;;;;;;9.68;7.25;;;;;;;20.32;90.98;99320.84;5027184;28;20030;-21
2023/06/11 00:26:00;;;;;;;8.30;6.50;;;;;;;20.40;90.60;99328.25;5026784;28;20021;-18
2023/06/11 00:28:26;;;;;;;8.40;6.88;;;;;;;20.35;90.49;99331.09;5027165;28;20415;-18
2023/06/11 00:30:51;;;;;;;9.25;6.65;;;;;;;20.43;90.30;99333.09;5026998;28;20021;-18
2023/06/11 00:33:16;;;;;;;9.48;7.07;;;;;;;20.25;91.33;99334.78;5026804;28;20424;-18
2023/06/11 00:35:42;;;;;;;9.10;6.03;;;;;;;20.05;92.93;99346.81;5027004;28;20029;-18
2023/06/11 00:38:08;;;;;;;11.45;6.22;;;;;;;19.78;94.32;99344.06;5026666;28;20163;-20
2023/06/11 00:40:34;;;;;;;10.82;6.47;;;;;;;19.77;94.00;99337.84;5026834;28;20113;-18
2023/06/11 00:42:59;;;;;;;10.68;6.97;;;;;;;19.77;94.19;99355.97;5026347;28;20129;-18
2023/06/11 00:45:27;;;;;;;9.57;6.75;;;;;;;19.97;92.17;99336.66;5026453;28;20032;-18
2023/06/11 00:47:52;;;;;;;8.65;7.35;;;;;;;20.14;90.50;99354.22;5026639;28;20026;-18
2023/06/11 00:50:18;;;;;;;10.00;7.18;;;;;;;20.16;89.95;99349.31;5026644;28;20737;-18
2023/06/11 00:52:43;;;;;;;9.90;7.78;;;;;;;20.02;90.88;99350.13;5026751;28;20432;-19
2023/06/11 00:55:11;;;;;;;9.63;7.45;;;;;;;20.00;91.83;99346.91;5026251;28;20416;-20
2023/06/11 00:57:40;;;;;;;;;;;;;;;19.93;91.93;99345.69;5026793;28;20029;-18
2023/06/11 01:00:11;;;;;;;10.05;7.13;;;;;;;19.87;91.88;99350.38;5022576;28;19948;-19
2023/06/11 01:02:47;;;;;;;10.15;7.13;;;;;;;19.90;91.87;99341.69;4987246;28;20037;-19
2023/06/11 01:05:17;;;;;;;9.18;6.80;;;;;;;19.79;92.91;99351.06;5026096;28;20037;-18
2023/06/11 01:07:50;;;;;;;9.25;6.20;;;;;;;19.89;92.22;99345.47;5026411;28;20117;-18
2023/06/11 01:10:17;;;;;;;9.48;6.10;;;;;;;20.08;91.41;99348.09;5026010;28;20515;-18
2023/06/11 01:12:42;;;;;;;11.27;6.45;;;;;;;19.91;91.56;99356.00;5025965;28;20485;-19
2023/06/11 01:15:13;;;;;;;10.43;6.10;;;;;;;19.88;91.96;99354.72;5020670;28;20044;-18
2023/06/11 01:18:02;;;;;;;11.10;6.07;;;;;;;19.80;92.76;99350.00;5007766;28;20033;-18
2023/06/11 01:20:36;;;;;;;8.32;5.70;;;;;;;19.63;93.79;99359.41;5014799;28;20041;-19
2023/06/11 01:23:16;;;;;;;8.90;5.93;;;;;;;19.59;94.20;99357.59;5006238;28;20017;-19
2023/06/11 01:25:50;;;;;;;9.20;6.03;;;;;;;19.72;93.20;99356.06;5019457;28;20029;-20
2023/06/11 01:28:21;;;;;;;10.77;6.28;;;;;;;19.84;91.73;99354.50;5025775;28;20163;-18
2023/06/11 01:30:50;;;;;;;8.13;6.18;;;;;;;19.43;94.21;99340.81;5025646;28;20420;-18
2023/06/11 01:33:18;;;;;;;9.15;5.97;;;;;;;19.36;95.31;99353.91;5014423;28;20036;-18
2023/06/11 01:35:45;;;;;;;9.60;5.50;;;;;;;19.61;93.11;99350.78;5006185;28;20448;-18
2023/06/11 01:38:11;;;;;;;10.43;6.23;;;;;;;19.68;92.31;99362.03;5005235;28;20102;-18
2023/06/11 01:40:37;;;;;;;8.63;5.85;;;;;;;19.67;92.60;99356.91;5005898;28;20029;-19
2023/06/11 01:43:02;;;;;;;7.65;6.00;;;;;;;19.80;91.52;99364.31;5005923;28;20050;-18
2023/06/11 01:45:32;;;;;;;7.13;5.35;;;;;;;19.70;92.09;99358.25;5005956;28;20038;-19
2023/06/11 01:47:58;;;;;;;9.02;6.28;;;;;;;19.74;91.90;99360.09;5005688;28;20467;-18
2023/06/11 01:50:24;;;;;;;9.52;6.05;;;;;;;19.57;93.05;99357.88;5006100;28;20491;-22
2023/06/11 01:52:49;;;;;;;8.13;6.32;;;;;;;19.49;93.32;99355.84;5005552;28;20038;-20
2023/06/11 01:55:15;;;;;;;9.70;6.05;;;;;;;19.50;93.13;99365.59;5005970;28;20503;-19
2023/06/11 01:57:41;;;;;;;8.02;5.75;;;;;;;19.04;95.61;99352.75;5005111;28;20044;-18
2023/06/11 02:00:10;;;;;;;9.57;5.95;;;;;;;19.38;93.18;99362.53;5005639;28;20484;-19
2023/06/11 02:02:40;;;;;;;11.25;6.88;;;;;;;19.37;93.38;99366.31;5005607;28;20045;-24
2023/06/11 02:05:05;;;;;;;9.27;6.45;;;;;;;19.42;91.79;99363.56;5005981;28;20022;-22
2023/06/11 02:07:31;;;;;;;11.23;6.32;;;;;;;19.17;93.32;99367.47;4986056;28;20069;-19
2023/06/11 02:09:56;;;;;;;11.93;6.65;;;;;;;19.28;92.14;99363.50;4986169;28;20521;-19
2023/06/11 02:12:22;;;;;;;9.38;6.38;;;;;;;18.75;95.51;99360.97;4986022;28;20046;-19
2023/06/11 02:14:47;;;;;;;9.27;6.05;;;;;;;18.95;94.72;99357.22;4985891;28;20026;-19
2023/06/11 02:17:13;;;;;;;8.73;5.55;;;;;;;19.07;93.26;99369.19;5002123;28;20029;-18
2023/06/11 02:19:38;;;;;;;8.60;5.45;;;;;;;19.09;92.41;99366.22;5005599;28;20466;-18
2023/06/11 02:22:04;;;;;;;8.75;5.45;;;;;;;19.21;91.88;99374.69;5005588;28;20037;-18
2023/06/11 02:24:29;;;;;;;8.32;5.32;;;;;;;19.06;92.20;99366.78;5005467;28;20030;-18
2023/06/11 02:26:55;;;;;;;8.15;5.57;;;;;;;19.12;91.19;99365.59;5005542;28;20037;-18
2023/06/11 02:29:20;;;;;;;7.10;5.13;;;;;;;18.79;93.64;99368.22;5005602;28;20105;-20
2023/06/11 02:31:46;;;;;;;7.72;5.43;;;;;;;19.01;91.78;99370.38;5005285;28;20034;-18
2023/06/11 02:34:11;;;;;;;8.63;5.30;;;;;;;18.80;92.93;99359.03;5005350;28;20551;-19
2023/06/11 02:36:37;;;;;;;7.93;5.28;;;;;;;18.56;94.10;99363.66;5005367;28;20029;-19
2023/06/11 02:39:03;;;;;;;6.93;4.70;;;;;;;18.43;95.39;99349.75;5005507;28;20053;-18
2023/06/11 02:41:28;;;;;;;9.77;5.30;;;;;;;18.66;93.72;99363.50;5005610;28;20040;-18
2023/06/11 02:43:54;;;;;;;7.57;5.38;;;;;;;18.61;93.87;99360.88;5022671;28;20045;-19
2023/06/11 02:46:20;;;;;;;8.43;5.53;;;;;;;18.83;92.56;99363.84;5025339;28;20053;-21
2023/06/11 02:48:45;;;;;;;7.13;5.63;;;;;;;18.64;93.22;99361.09;5025556;28;20028;-18
2023/06/11 02:51:11;;;;;;;10.55;5.22;;;;;;;18.45;94.47;99358.38;5028779;28;20417;-20
2023/06/11 02:53:36;;;;;;;9.82;5.65;;;;;;;18.59;93.69;99358.47;5028667;28;20080;-19
2023/06/11 02:56:01;;;;;;;10.52;5.88;;;;;;;18.74;92.85;99370.19;5020500;28;20390;-21
2023/06/11 02:58:27;;;;;;;13.02;6.00;;;;;;;18.28;95.89;99368.81;5024825;28;20504;-19
2023/06/11 03:00:52;;;;;;;12.57;5.47;;;;;;;18.26;97.09;99361.00;5028684;28;20412;-18
2023/06/11 03:03:18;;;;;;;10.02;5.75;;;;;;;18.63;94.14;99374.88;5028390;28;20207;-18
2023/06/11 03:05:43;;;;;;;8.52;6.03;;;;;;;18.29;96.77;99370.44;5028476;28;20386;-19
2023/06/11 03:08:08;;;;;;;9.77;6.32;;;;;;;18.51;95.82;99355.59;5028586;28;20104;-18
2023/06/11 03:10:34;;;;;;;9.70;6.28;;;;;;;18.50;95.23;99351.31;5028640;28;20025;-18
2023/06/11 03:12:59;;;;;;;10.63;6.55;;;;;;;18.44;95.34;99364.84;5028410;28;20747;-20
2023/06/11 03:15:25;;;;;;;11.40;6.50;;;;;;;18.52;95.92;99368.00;5028072;28;20080;-19
2023/06/11 03:17:50;;;;;;;11.20;6.57;;;;;;;18.55;95.68;99367.41;5028552;28;20029;-18
2023/06/11 03:20:16;;;;;;;11.07;6.55;;;;;;;18.67;94.96;99375.91;5028070;28;20021;-19
2023/06/11 03:22:41;;;;;;;9.82;6.10;;;;;;;18.54;95.99;99376.63;5021592;28;20559;-19
2023/06/11 03:25:06;;;;;;;11.20;6.43;;;;;;;18.78;94.24;99366.59;5020742;28;20033;-19
2023/06/11 03:27:32;;;;;;;9.70;5.95;;;;;;;18.63;95.08;99370.31;5028372;28;20084;-18
2023/06/11 03:29:57;;;;;;;10.05;6.03;;;;;;;18.80;93.98;99374.44;5027776;28;20422;-20
2023/06/11 03:32:23;;;;;;;8.60;5.38;;;;;;;18.78;94.02;99382.00;5028090;28;20028;-18
2023/06/11 03:34:52;;;;;;;8.45;5.82;;;;;;;18.72;95.26;99378.56;5027904;28;20032;-18
2023/06/11 03:37:18;;;;;;;11.70;6.22;;;;;;;18.69;95.52;99373.72;5028055;28;20104;-18
2023/06/11 03:39:43;;;;;;;9.23;5.68;;;;;;;19.00;93.68;99384.97;5028034;28;20053;-18
2023/06/11 03:42:09;;;;;;;10.50;5.50;;;;;;;19.06;92.54;99377.59;5027621;28;20184;-19
2023/06/11 03:44:35;;;;;;;11.93;6.15;;;;;;;19.18;92.50;99380.66;5027884;28;20029;-19
2023/06/11 03:47:01;;;;;;;10.65;6.40;;;;;;;19.26;92.65;99388.09;5027657;28;20095;-20
2023/06/11 03:49:26;;;;;;;9.98;5.55;;;;;;;19.31;92.55;99379.13;5027823;28;20495;-18
2023/06/11 03:51:52;;;;;;;8.20;5.68;;;;;;;19.43;91.78;99392.19;5027723;28;20147;-18
2023/06/11 03:54:17;;;;;;;8.55;6.03;;;;;;;19.52;91.25;99390.44;5015288;28;20491;-17
2023/06/11 03:56:42;;;;;;;9.32;5.75;;;;;;;19.45;92.06;99385.41;5027599;28;20033;-18
2023/06/11 03:59:08;;;;;;;8.32;5.57;;;;;;;19.57;90.83;99384.94;5027182;28;20090;-23
2023/06/11 04:01:33;;;;;;;8.48;6.00;;;;;;;19.58;90.60;99383.84;5027032;28;20032;-18
2023/06/11 04:03:59;;;;;;;10.98;6.18;;;;;;;19.81;89.73;99384.03;5027332;28;20037;-19
2023/06/11 04:06:24;;;;;;;8.38;6.13;;;;;;;19.77;90.00;99375.72;5027340;28;20078;-18
2023/06/11 04:08:50;;;;;;;8.48;5.28;;;;;;;19.78;89.82;99384.66;5027369;28;20448;-19
2023/06/11 04:11:15;;;;;;;10.88;5.45;;;;;;;19.91;90.28;99380.38;5027376;28;20025;-19
2023/06/11 04:13:40;;;;;;;13.60;5.82;;;;;;;20.16;88.64;99369.06;5027291;28;20072;-18
2023/06/11 04:16:06;;;;;;;8.50;5.45;;;;;;;20.20;87.48;99383.59;5027227;28;20029;-18
2023/06/11 04:18:31;;;;;;;8.50;5.70;;;;;;;20.11;87.36;99379.19;5027171;28;20083;-18
2023/06/11 04:20:57;;;;;;;8.55;5.35;;;;;;;20.12;87.99;99378.09;5027277;28;20040;-18
2023/06/11 04:23:22;;;;;;;8.88;5.05;;;;;;;20.29;86.27;99378.31;5021002;28;20076;-18
2023/06/11 04:25:51;;;;;;;8.10;5.18;;;;;;;20.29;87.13;99386.44;5017496;28;20030;-18
2023/06/11 04:28:17;;;;;;;17.30;5.63;;;;;;;20.35;86.11;99387.94;5027041;28;20029;-18
2023/06/11 04:30:42;;;;;;;10.68;5.55;;;;;;;20.47;86.30;99390.13;5026873;28;20029;-19
2023/06/11 04:33:08;;;;;;;12.48;5.13;;;;;;;20.52;84.54;99383.84;5027164;28;20039;-19
2023/06/11 04:35:34;;;;;;;8.85;6.00;;;;;;;20.59;85.38;99373.41;5026831;28;20057;-17
2023/06/11 04:38:06;;;;;;;8.55;5.63;;;;;;;20.83;84.56;99387.53;5026891;28;20648;-18
2023/06/11 04:40:34;;;;;;;8.68;5.55;;;;;;;21.16;82.77;99392.78;5026969;28;20124;-25
2023/06/11 04:43:00;;;;;;;9.23;5.80;;;;;;;20.99;81.75;99398.06;5026617;28;20056;-18
2023/06/11 04:45:26;;;;;;;8.48;5.45;;;;;;;20.95;82.81;99399.78;5026545;28;20033;-18
2023/06/11 04:47:52;;;;;;;12.73;6.30;;;;;;;20.83;84.49;99395.66;5022982;28;20061;-18
2023/06/11 04:50:21;;;;;;;8.15;5.38;;;;;;;20.98;82.27;99401.84;5014795;28;20033;-19
2023/06/11 04:52:49;;;;;;;8.05;6.20;;;;;;;21.05;82.34;99396.84;5015316;28;20029;-19
2023/06/11 04:55:16;;;;;;;10.75;6.65;;;;;;;21.06;82.40;99399.25;5021620;28;20112;-19
2023/06/11 04:57:41;;;;;;;10.60;6.90;;;;;;;21.16;80.20;99402.81;5026219;28;20461;-19
2023/06/11 05:00:08;;;;;;;9.05;6.38;;;;;;;21.07;83.67;99405.47;5026531;28;20083;-18
2023/06/11 05:02:37;;;;;;;11.20;7.00;;;;;;;20.87;82.95;99385.81;5026383;28;20030;-18
2023/06/11 05:05:04;;;;;;;8.80;7.10;;;;;;;20.93;84.29;99401.97;5022781;28;20053;-17
2023/06/11 05:07:30;;;;;;;12.50;7.47;;;;;;;21.11;83.68;99405.66;5011951;28;20062;-19
2023/06/11 05:09:55;;;;;;;9.45;6.80;;;;;;;21.09;83.22;99387.00;5011814;28;20073;-19
2023/06/11 05:12:20;;;;;;;12.80;7.00;;;;;;;21.17;82.82;99391.69;5011750;28;20131;-19
2023/06/11 05:14:46;;;;;;;10.10;6.90;;;;;;;21.02;83.84;99395.53;5012355;28;20033;-18
2023/06/11 05:17:11;;;;;;;16.50;12.40;;;;;;;21.30;83.65;99398.16;5015693;28;20029;-19
2023/06/11 05:19:37;;;;;;;11.43;6.65;;;;;;;21.39;83.60;99390.09;5011307;28;20497;-19
2023/06/11 05:22:02;;;;;;;12.90;6.70;;;;;;;21.61;81.56;99392.84;5011469;28;20125;-18
2023/06/11 05:24:29;;;;;;;9.73;5.85;;;;;;;21.67;82.33;99397.03;5013285;28;20540;-18
2023/06/11 05:26:55;;;;;;;8.85;6.13;;;;;;;21.74;79.47;99403.94;5011603;28;20030;-18
2023/06/11 05:29:21;;;;;;;9.15;5.35;;;;;;;21.76;78.82;99413.41;5019376;28;20699;-20
2023/06/11 05:31:47;;;;;;;8.07;5.65;;;;;;;21.79;78.30;99411.97;5011976;28;20030;-18
2023/06/11 05:34:12;;;;;;;9.20;6.28;;;;;;;21.73;79.25;99407.78;5014418;28;20099;-19
2023/06/11 05:36:38;;;;;;;8.40;5.47;;;;;;;21.92;77.05;99407.56;5012861;28;20026;-18
2023/06/11 05:39:03;;;;;;;8.48;5.38;;;;;;;22.03;76.58;99417.88;5014032;28;20104;-18
2023/06/11 05:41:28;;;;;;;7.75;5.15;;;;;;;22.10;74.47;99419.34;5012469;28;20025;-18
2023/06/11 05:43:54;;;;;;;7.32;5.55;;;;;;;22.00;76.39;99421.19;5001801;28;20048;-20
2023/06/11 05:46:23;;;;;;;8.60;5.82;;;;;;;22.10;77.16;99424.75;4995642;28;20022;-20
2023/06/11 05:48:49;;;;;;;9.48;5.65;;;;;;;22.27;77.12;99425.69;5001667;28;20084;-17
2023/06/11 05:51:15;;;;;;;7.82;5.70;;;;;;;22.42;75.83;99429.09;5005301;28;20041;-18
2023/06/11 05:53:40;;;;;;;10.77;5.72;;;;;;;22.53;74.48;99432.34;5006103;28;20040;-18
2023/06/11 05:56:06;;;;;;;8.20;5.55;;;;;;;22.48;73.51;99430.56;5005248;28;20026;-19
2023/06/11 05:58:33;;;;;;;9.27;5.88;;;;;;;22.29;75.39;99422.63;5005167;28;20125;-18
2023/06/11 06:01:03;;;;;;;9.68;6.20;;;;;;;22.21;75.53;99426.09;5004347;28;20041;-19
2023/06/11 06:03:33;;;;;;;9.68;6.22;;;;;;;22.33;75.85;99430.97;5004097;28;20034;-18
2023/06/11 06:06:01;;;;;;;8.82;6.10;;;;;;;22.24;74.96;99420.06;5005236;28;20041;-18
2023/06/11 06:08:28;;;;;;;10.70;6.10;;;;;;;22.21;74.86;99431.50;5005283;28;20034;-18
2023/06/11 06:10:54;;;;;;;8.80;5.78;;;;;;;22.14;74.67;99429.25;5005192;28;20033;-18
2023/06/11 06:13:20;;;;;;;9.27;5.88;;;;;;;22.38;73.92;99434.34;5005624;28;20037;-19
2023/06/11 06:15:45;;;;;;;11.65;6.15;;;;;;;22.56;72.58;99431.72;5005749;28;20030;-18
2023/06/11 06:18:10;;;;;;;9.70;5.88;;;;;;;22.61;73.20;99423.41;5005664;28;20029;-19
2023/06/11 06:20:36;;;;;;;12.10;6.70;;;;;;;22.73;72.99;99437.19;5005805;28;20029;-18
2023/06/11 06:23:01;;;;;;;7.00;5.32;;;;;;;22.77;72.61;99421.06;5005455;28;20053;-19
2023/06/11 06:25:27;;;;;;;9.32;6.63;;;;;;;22.85;72.74;99429.25;5008457;28;20022;-19
2023/06/11 06:27:52;;;;;;;9.52;5.35;;;;;;;23.06;72.21;99434.09;5009764;28;20018;-19
2023/06/11 06:30:18;;;;;;;8.68;6.28;;;;;;;23.32;69.84;99427.91;5009468;28;20026;-19
2023/06/11 06:32:44;;;;;;;15.85;6.05;;;;;;;23.46;70.55;99436.72;5009537;28;20481;-22
2023/06/11 06:35:09;;;;;;;9.77;6.18;;;;;;;23.62;71.16;99429.66;5008657;28;20037;-18
2023/06/11 06:37:35;;;;;;;11.18;6.28;;;;;;;23.68;67.78;99427.59;5005330;28;20030;-18
2023/06/11 06:40:01;;;;;;;9.18;5.97;;;;;;;23.71;68.77;99415.25;5009410;28;20034;-18
2023/06/11 06:42:26;;;;;;;9.48;6.07;;;;;;;23.76;68.64;99424.06;5009035;28;20061;-20
2023/06/11 06:44:52;;;;;;;9.75;5.70;;;;;;;23.71;70.90;99431.56;5008402;28;20480;-17
2023/06/11 06:47:17;;;;;;;10.38;5.90;;;;;;;23.92;68.26;99432.53;5008855;28;20113;-19
2023/06/11 06:49:43;;;;;;;6.65;5.22;;;;;;;24.06;67.01;99438.56;5009629;28;20029;-19
2023/06/11 06:52:11;;;;;;;8.32;5.47;;;;;;;24.42;65.66;99436.56;5008606;28;20084;-19
2023/06/11 06:54:36;;;;;;;7.93;4.70;;;;;;;24.60;63.81;99437.28;5009073;28;20037;-18
2023/06/11 06:57:02;;;;;;;7.32;4.85;;;;;;;24.68;63.11;99441.91;5009025;28;20025;-20
2023/06/11 06:59:28;;;;;;;9.98;5.25;;;;;;;24.79;62.65;99443.16;5008941;28;20022;-19
2023/06/11 07:01:53;;;;;;;12.23;4.85;;;;;;;24.99;61.83;99438.06;5009157;28;20113;-18
2023/06/11 07:04:18;;;;;;;15.40;5.18;;;;;;;24.56;64.75;99428.19;5008791;28;20485;-18
2023/06/11 07:06:44;;;;;;;7.18;4.80;;;;;;;24.98;63.75;99429.06;5007774;28;20028;-19
2023/06/11 07:09:09;;;;;;;7.28;4.90;;;;;;;25.47;60.40;99434.03;5008652;28;20045;-19
2023/06/11 07:11:36;;;;;;;9.40;4.78;;;;;;;25.90;59.43;99435.59;5008980;28;20029;-18
2023/06/11 07:14:01;;;;;;;6.97;4.57;;;;;;;26.18;56.09;99435.00;5008605;28;20048;-18
2023/06/11 07:16:27;;;;;;;7.35;4.80;;;;;;;26.28;56.04;99436.50;5008753;28;20026;-18
2023/06/11 07:18:52;;;;;;;7.90;4.93;;;;;;;26.50;56.63;99435.25;5008374;28;20065;-19
2023/06/11 07:21:17;;;;;;;8.07;4.43;;;;;;;26.62;57.88;99427.91;5008610;28;20029;-19
2023/06/11 07:23:43;;;;;;;7.82;4.78;;;;;;;26.63;58.33;99429.47;5008683;28;20037;-19
2023/06/11 07:26:13;;;;;;;7.68;4.63;;;;;;;26.94;55.37;99430.03;5007264;28;20029;-18
2023/06/11 07:28:39;;;;;;;10.23;5.10;;;;;;;27.09;55.46;99434.00;4988887;28;20026;-20
2023/06/11 07:31:04;;;;;;;9.57;5.15;;;;;;;27.00;53.76;99437.66;4988690;28;20023;-18
2023/06/11 07:33:30;;;;;;;6.07;3.97;;;;;;;27.15;53.01;99438.88;4988967;28;20041;-18
2023/06/11 07:35:56;;;;;;;6.72;4.20;;;;;;;27.14;52.88;99437.28;4987593;28;20537;-19
2023/06/11 07:38:21;;;;;;;7.55;4.32;;;;;;;26.90;53.44;99435.38;4988682;28;20774;-19
2023/06/11 07:40:46;;;;;;;7.13;4.03;;;;;;;26.99;50.98;99421.56;4988520;28;20022;-19
2023/06/11 07:43:12;;;;;;;7.93;3.92;;;;;;;27.34;51.22;99434.75;4994177;28;20034;-20
2023/06/11 07:45:37;;;;;;;9.23;4.53;;;;;;;27.67;51.25;99436.50;5008330;28;20034;-18
2023/06/11 07:48:03;;;;;;;7.57;4.55;;;;;;;27.77;48.90;99423.06;5007077;28;20422;-20
2023/06/11 07:50:28;;;;;;;6.80;4.53;;;;;;;27.54;53.25;99433.78;5006570;28;20033;-18
2023/06/11 07:52:53;;;;;;;7.53;4.35;;;;;;;27.45;50.52;99435.88;5007013;28;20034;-19
2023/06/11 07:55:19;;;;;;;7.63;4.43;;;;;;;27.47;51.66;99435.53;5007450;28;20033;-19
2023/06/11 07:57:44;;;;;;;7.68;4.10;;;;;;;27.74;50.31;99414.75;5007541;28;20026;-19
2023/06/11 08:00:12;;;;;;;9.20;4.30;;;;;;;28.11;46.44;99425.53;5007735;28;20034;-19
2023/06/11 08:02:39;;;;;;;7.60;4.20;;;;;;;28.11;46.76;99428.28;5007825;28;20068;-18
2023/06/11 08:05:05;;;;;;;7.22;3.90;;;;;;;28.07;48.44;99421.91;5007709;28;20029;-19
2023/06/11 08:07:31;;;;;;;7.10;3.65;;;;;;;27.83;47.43;99420.88;5007905;28;20026;-18
2023/06/11 08:09:56;;;;;;;10.73;4.35;;;;;;;28.48;46.16;99423.31;5007723;28;20385;-19
2023/06/11 08:12:21;;;;;;;7.38;4.78;;;;;;;28.16;44.27;99431.56;5007937;28;20034;-17
2023/06/11 08:14:47;;;;;;;9.00;3.85;;;;;;;28.09;44.77;99428.63;5006871;28;20100;-19
2023/06/11 08:17:13;;;;;;;7.63;4.05;;;;;;;28.35;44.18;99433.59;5007169;28;20141;-18
2023/06/11 08:19:38;;;;;;;8.27;4.13;;;;;;;28.63;40.20;99435.50;5007271;28;20034;-18
2023/06/11 08:22:04;;;;;;;8.43;4.60;;;;;;;28.51;42.27;99432.84;5007428;28;20119;-19
2023/06/11 08:24:30;;;;;;;7.53;4.18;;;;;;;28.39;42.63;99422.72;5007085;28;20036;-18
2023/06/11 08:26:56;;;;;;;8.48;4.47;;;;;;;28.49;42.63;99421.41;5007225;28;20018;-19
2023/06/11 08:29:21;;;;;;;6.85;4.30;;;;;;;28.71;42.24;99411.72;5007086;28;20032;-19
2023/06/11 08:31:47;;;;;;;9.45;4.20;;;;;;;28.78;42.07;99420.94;5006936;28;20029;-25
2023/06/11 08:34:12;;;;;;;8.40;4.20;;;;;;;28.87;40.49;99420.72;5006833;28;20036;-19
2023/06/11 08:36:40;;;;;;;7.18;4.25;;;;;;;28.81;41.30;99405.69;5006134;28;20030;-19
2023/06/11 08:39:06;;;;;;;6.75;4.40;;;;;;;29.16;42.44;99422.19;5006098;28;20131;-18
2023/06/11 08:41:31;;;;;;;8.90;4.35;;;;;;;29.03;40.52;99426.19;5006062;28;20084;-19
2023/06/11 08:43:57;;;;;;;13.55;4.65;;;;;;;28.91;40.98;99416.16;5013259;28;20283;-19
2023/06/11 08:46:24;;;;;;;6.30;4.05;;;;;;;28.84;40.43;99427.72;5011863;28;20040;-19
2023/06/11 08:49:00;;;;;;;8.17;4.63;;;;;;;28.64;41.70;99428.84;5021508;28;20030;-19
2023/06/11 08:51:37;;;;;;;6.57;4.67;;;;;;;28.63;41.07;99427.25;5026568;28;20022;-18
2023/06/11 08:54:06;;;;;;;9.02;4.65;;;;;;;28.56;41.66;99429.81;5026502;28;20530;-18
2023/06/11 08:56:32;;;;;;;9.07;4.57;;;;;;;28.41;41.27;99429.44;5026507;28;20483;-19
2023/06/11 08:59:00;;;;;;;7.65;4.30;;;;;;;28.43;42.88;99413.44;5026352;28;20594;-19
2023/06/11 09:01:25;;;;;;;;;;;;;;;28.48;42.05;99426.06;5027009;28;20026;-18
2023/06/11 09:03:50;;;;;;;9.00;4.70;;;;;;;28.65;41.77;99427.69;5026179;28;19920;-18
2023/06/11 09:06:18;;;;;;;9.38;4.63;;;;;;;28.87;41.13;99425.44;5026482;28;20022;-19
2023/06/11 09:08:43;;;;;;;11.32;4.72;;;;;;;29.39;39.82;99429.72;5026226;28;20064;-19
2023/06/11 09:11:08;;;;;;;8.90;5.75;;;;;;;29.72;40.02;99426.47;5025882;28;20065;-19
2023/06/11 09:13:34;;;;;;;10.52;5.05;;;;;;;30.00;38.37;99425.44;5025957;28;20025;-19
2023/06/11 09:16:00;;;;;;;8.40;4.70;;;;;;;29.72;39.02;99417.44;5025600;28;20063;-20
2023/06/11 09:18:27;;;;;;;12.10;4.68;;;;;;;30.00;39.15;99420.72;5025822;28;20083;-18
2023/06/11 09:20:57;;;;;;;7.75;4.63;;;;;;;30.16;38.58;99411.53;5025777;28;20507;-18
2023/06/11 09:23:28;;;;;;;11.80;5.00;;;;;;;29.71;39.41;99407.59;5025585;28;20034;-20
2023/06/11 09:25:54;;;;;;;7.20;4.47;;;;;;;29.76;39.08;99404.56;5022386;28;20034;-18
2023/06/11 09:28:20;;;;;;;8.02;4.00;;;;;;;29.35;40.64;99402.19;5015670;28;20099;-19
2023/06/11 09:30:56;;;;;;;6.93;4.72;;;;;;;29.96;39.41;99408.09;5025749;28;20072;-18
2023/06/11 09:33:22;;;;;;;11.60;5.05;;;;;;;29.70;38.48;99409.53;5025711;28;20666;-18
2023/06/11 09:35:48;;;;;;;7.53;4.20;;;;;;;30.01;37.52;99405.81;5005246;28;20030;-20
2023/06/11 09:38:15;;;;;;;7.45;3.72;;;;;;;30.25;37.80;99409.34;5014716;28;20538;-18
2023/06/11 09:40:48;;;;;;;7.95;4.20;;;;;;;30.64;38.60;99399.00;5007451;28;20062;-19
2023/06/11 09:43:14;;;;;;;7.13;3.92;;;;;;;30.91;37.20;99407.25;5004300;28;20041;-19
2023/06/11 09:45:41;;;;;;;12.75;4.53;;;;;;;30.84;37.94;99401.66;5005463;28;20022;-18
2023/06/11 09:48:10;;;;;;;5.80;4.05;;;;;;;30.95;37.15;99410.06;5005518;28;20092;-19
2023/06/11 09:50:36;;;;;;;6.60;3.90;;;;;;;30.69;37.85;99400.66;5005251;28;20858;-18
2023/06/11 09:53:03;;;;;;;12.60;4.55;;;;;;;31.09;38.17;99391.00;5005565;28;20026;-18
2023/06/11 09:55:35;;;;;;;9.30;4.45;;;;;;;30.92;38.29;99395.09;5005171;28;20029;-19
2023/06/11 09:58:03;;;;;;;6.00;4.53;;;;;;;31.17;36.94;99391.88;5005594;28;20037;-18
2023/06/11 10:00:30;;;;;;;10.75;4.07;;;;;;;30.57;37.38;99384.34;5004989;28;20069;-19
2023/06/11 10:02:57;;;;;;;9.02;4.13;;;;;;;30.72;35.77;99394.41;5005543;28;20030;-19
2023/06/11 10:05:25;;;;;;;9.02;4.20;;;;;;;30.86;36.50;99384.75;5005701;28;20105;-18
2023/06/11 10:08:20;;;;;;;7.82;3.88;;;;;;;30.78;35.25;99387.41;5005670;28;20053;-19
2023/06/11 10:10:48;;;;;;;8.55;3.80;;;;;;;30.64;36.25;99382.47;5001488;28;20065;-18
2023/06/11 10:13:30;;;;;;;6.78;4.90;;;;;;;31.07;35.87;99368.53;5006028;28;20026;-18
2023/06/11 10:16:00;;;;;;;8.48;3.83;;;;;;;31.31;36.26;99375.53;5005436;28;20030;-19
2023/06/11 10:18:26;;;;;;;17.45;3.72;;;;;;;31.14;33.62;99368.66;5005238;28;20105;-19
2023/06/11 10:20:54;;;;;;;7.03;3.40;;;;;;;31.09;34.10;99363.44;5005335;28;20053;-19
2023/06/11 10:23:21;;;;;;;8.50;3.35;;;;;;;31.21;32.79;99368.72;5005503;28;20033;-18
2023/06/11 10:25:55;;;;;;;5.15;2.88;;;;;;;31.23;32.22;99374.66;5005722;28;20121;-19
2023/06/11 10:28:35;;;;;;;10.10;3.35;;;;;;;30.53;32.71;99367.00;5003782;28;20534;-18
2023/06/11 10:31:01;;;;;;;6.70;3.22;;;;;;;31.08;33.38;99361.88;5001343;28;20096;-19
2023/06/11 10:33:45;;;;;;;10.60;3.40;;;;;;;31.57;32.30;99371.13;5004791;28;20029;-19
2023/06/11 10:36:24;;;;;;;8.45;3.15;;;;;;;31.67;32.25;99367.69;5004723;28;20052;-20
2023/06/11 10:39:04;;;;;;;8.05;3.65;;;;;;;31.34;32.56;99365.72;4997028;28;20033;-19
2023/06/11 10:41:29;;;;;;;10.65;3.80;;;;;;;31.31;32.91;99363.72;5005175;28;20041;-19
2023/06/11 10:43:57;;;;;;;7.60;3.47;;;;;;;30.91;32.90;99356.94;5022497;28;20049;-21
2023/06/11 10:46:23;;;;;;;7.10;3.65;;;;;;;31.14;34.14;99349.38;5025027;28;20112;-18
2023/06/11 10:48:54;;;;;;;8.10;3.45;;;;;;;31.20;33.43;99360.81;5024792;28;20120;-18
2023/06/11 10:51:21;;;;;;;8.38;3.95;;;;;;;31.38;33.28;99359.06;5024530;28;20022;-20
2023/06/11 10:53:58;;;;;;;11.53;3.40;;;;;;;30.48;34.46;99356.31;5024848;28;20049;-27
2023/06/11 10:56:24;;;;;;;;;;;;;;;30.52;35.29;99348.91;5025023;28;20339;-19
2023/06/11 10:58:53;;;;;;;6.82;3.60;;;;;;;30.05;34.37;99348.13;5024728;28;19936;-18
2023/06/11 11:01:22;;;;;;;7.32;3.40;;;;;;;29.91;35.47;99345.94;5024867;28;20052;-18
2023/06/11 11:03:52;;;;;;;9.63;3.55;;;;;;;29.64;35.29;99348.59;5024603;28;20026;-20
2023/06/11 11:06:26;;;;;;;10.23;3.58;;;;;;;29.64;35.61;99348.59;5006827;28;20341;-24
2023/06/11 11:08:55;;;;;;;7.53;3.10;;;;;;;29.87;37.84;99345.09;5024791;28;20033;-18
2023/06/11 11:11:21;;;;;;;6.13;2.95;;;;;;;30.11;34.42;99343.91;5027190;28;20033;-18
2023/06/11 11:13:46;;;;;;;6.78;2.85;;;;;;;30.24;35.09;99341.78;5028441;28;20104;-20
2023/06/11 11:16:12;;;;;;;9.60;3.20;;;;;;;30.62;34.88;99340.00;5028555;28;20432;-19
2023/06/11 11:18:38;;;;;;;6.43;3.42;;;;;;;30.65;36.05;99342.03;5027924;28;20030;-19
2023/06/11 11:21:04;;;;;;;7.55;3.35;;;;;;;30.66;33.04;99335.34;5028199;28;20025;-19
2023/06/11 11:23:32;;;;;;;6.75;2.80;;;;;;;30.81;33.49;99342.63;5027875;28;20408;-18
2023/06/11 11:25:57;;;;;;;10.07;3.20;;;;;;;31.13;35.37;99331.25;5028112;28;20511;-20
2023/06/11 11:28:23;;;;;;;5.88;3.30;;;;;;;31.26;33.99;99339.25;5025345;28;20030;-19
2023/06/11 11:30:51;;;;;;;7.35;3.20;;;;;;;30.83;33.56;99329.28;5015465;28;20041;-20